Arnett, West Virginia
Current Conditions -  °F | °C
As of 11:51 PM on Wednesday 26 Nov 2014 (Local Time) from KBKW Reporting Station
Overcast Overcast  
Wind Chill: 33°   Ceiling: 9000
Heat Index: 33°   Visibility: 9mi
Dew Point: 31°   Wind: 0mph
Humidity: 92%   Direction: NA
Pressure: 29.95"   Gusts: NA
Location:  37.83°N, 81.43°W
Report Text: KBKW 270451Z AUTO 00000KT 9SM BKN090 OVC100 01/M01 A2995 RMK AO2 SLP165 T00061006 400500000
Loading
Personal Weather Stations






























Interactive Weather Map New forecast layout! Learn more

10-Day Weather Forecast

Advertisements
Track Severe Weather on mobile